Wetterdaten: Woche 05.11.18 - 11.11.18 (KW45)
Datum Zeit Temp. 2m rel. Feuchte Luftdruck Regen Wind Richtung Sonne ET UV-Index Solar Taupunkt Ben
05.11.2018 00:00 7,5 C 92 % 1011,5 hPa 0,0 mm 0,4 km/h (0 Bft) S-SO 0,00 h 0,0 mm 0,0 UV-I 0 W/m 6,2 C 2,6 km/h (1 Bft)
05.11.2018 01:00 7,3 C 94 % 1010,8 hPa 0,0 mm 0,9 km/h (0 Bft) S-SO 0,00 h 0,0 mm 0,0 UV-I 0 W/m 6,5 C 3,5 km/h (1 Bft)
05.11.2018 02:00 7,5 C 95 % 1010,3 hPa 0,0 mm 0,2 km/h (0 Bft) N 0,00 h 0,0 mm 0,0 UV-I 0 W/m 6,7 C 2,0 km/h (1 Bft)
05.11.2018 03:00 7,5 C 96 % 1010,0 hPa 0,0 mm 0,9 km/h (0 Bft) S-SO 0,00 h 0,0 mm 0,0 UV-I 0 W/m 6,8 C 4,4 km/h (1 Bft)
05.11.2018 04:00 8,1 C 95 % 1009,6 hPa 0,0 mm 0,1 km/h (0 Bft) N 0,00 h 0,0 mm 0,0 UV-I 0 W/m 7,3 C 0,9 km/h (0 Bft)
05.11.2018 05:00 7,9 C 96 % 1009,4 hPa 0,0 mm 0,8 km/h (0 Bft) S 0,00 h 0,0 mm 0,0 UV-I 0 W/m 7,2 C 4,1 km/h (1 Bft)
05.11.2018 06:00 8,6 C 96 % 1009,1 hPa 0,0 mm 1,0 km/h (0 Bft) S-SO 0,00 h 0,0 mm 0,0 UV-I 0 W/m 8,0 C 5,2 km/h (1 Bft)
05.11.2018 07:00 9,4 C 94 % 1009,3 hPa 0,0 mm 3,4 km/h (1 Bft) SO 0,00 h 0,0 mm 0,0 UV-I 8 W/m 8,6 C 10,4 km/h (2 Bft)
05.11.2018 08:00 10,3 C 92 % 1009,2 hPa 0,0 mm 4,0 km/h (1 Bft) S 0,00 h 0,0 mm 0,0 UV-I 35 W/m 9,0 C 11,8 km/h (2 Bft)
05.11.2018 09:00 11,1 C 88 % 1008,9 hPa 0,0 mm 5,5 km/h (1 Bft) SO 0,00 h 0,0 mm 0,0 UV-I 46 W/m 9,2 C 15,3 km/h (3 Bft)
05.11.2018 10:00 11,6 C 87 % 1008,6 hPa 0,0 mm 4,7 km/h (1 Bft) S-SO 0,00 h 0,0 mm 0,0 UV-I 79 W/m 9,4 C 14,1 km/h (3 Bft)
05.11.2018 11:00 12,3 C 83 % 1008,5 hPa 0,0 mm 6,8 km/h (2 Bft) S 0,00 h 0,1 mm 0,0 UV-I 150 W/m 9,6 C 21,5 km/h (4 Bft)
05.11.2018 12:00 13,3 C 80 % 1008,0 hPa 0,0 mm 7,3 km/h (2 Bft) O 0,33 h 0,1 mm 0,1 UV-I 222 W/m 10,0 C 21,9 km/h (4 Bft)
05.11.2018 13:00 13,9 C 77 % 1007,5 hPa 0,0 mm 7,3 km/h (2 Bft) S-SO 0,50 h 0,1 mm 0,0 UV-I 206 W/m 10,0 C 19,0 km/h (3 Bft)
05.11.2018 14:00 13,8 C 78 % 1007,2 hPa 0,0 mm 6,4 km/h (2 Bft) S-SO 0,75 h 0,1 mm 0,0 UV-I 219 W/m 9,9 C 17,8 km/h (3 Bft)
05.11.2018 15:00 13,5 C 78 % 1006,8 hPa 0,0 mm 5,2 km/h (1 Bft) S-SW 0,08 h 0,1 mm 0,0 UV-I 90 W/m 9,7 C 15,0 km/h (3 Bft)
05.11.2018 16:00 12,7 C 80 % 1006,8 hPa 0,0 mm 3,3 km/h (1 Bft) S-SW 0,17 h 0,1 mm 0,0 UV-I 33 W/m 9,3 C 11,7 km/h (2 Bft)
05.11.2018 17:00 11,9 C 83 % 1006,9 hPa 0,0 mm 2,8 km/h (1 Bft) S 0,00 h 0,0 mm 0,0 UV-I 4 W/m 9,1 C 9,8 km/h (2 Bft)
05.11.2018 18:00 11,5 C 85 % 1007,0 hPa 0,0 mm 2,4 km/h (1 Bft) S-SO 0,00 h 0,0 mm 0,0 UV-I 0 W/m 9,0 C 9,6 km/h (2 Bft)
05.11.2018 19:00 11,0 C 86 % 1006,9 hPa 0,0 mm 2,6 km/h (1 Bft) S 0,00 h 0,0 mm 0,0 UV-I 0 W/m 8,8 C 8,7 km/h (2 Bft)
05.11.2018 20:00 10,4 C 88 % 1006,9 hPa 0,0 mm 1,3 km/h (1 Bft) S-SW 0,00 h 0,0 mm 0,0 UV-I 0 W/m 8,5 C 5,9 km/h (2 Bft)
05.11.2018 21:00 10,1 C 89 % 1006,9 hPa 0,0 mm 1,7 km/h (1 Bft) S 0,00 h 0,0 mm 0,0 UV-I 0 W/m 8,4 C 6,9 km/h (2 Bft)
05.11.2018 22:00 9,7 C 91 % 1006,9 hPa 0,0 mm 2,6 km/h (1 Bft) S-SO 0,00 h 0,0 mm 0,0 UV-I 0 W/m 8,3 C 9,1 km/h (2 Bft)
05.11.2018 23:00 9,4 C 92 % 1006,9 hPa 0,0 mm 2,0 km/h (1 Bft) S-SO 0,00 h 0,0 mm 0,0 UV-I 0 W/m 8,1 C 8,0 km/h (2 Bft)
06.11.2018 00:00 8,8 C 93 % 1007,0 hPa 0,0 mm 1,1 km/h (0 Bft) S 0,00 h 0,0 mm 0,0 UV-I 0 W/m 7,8 C 4,8 km/h (1 Bft)
06.11.2018 01:00 8,2 C 94 % 1007,0 hPa 0,0 mm 1,3 km/h (1 Bft) S 0,00 h 0,0 mm 0,0 UV-I 0 W/m 7,3 C 5,9 km/h (2 Bft)
06.11.2018 02:00 7,9 C 95 % 1007,0 hPa 0,0 mm 2,2 km/h (1 Bft) S-SO 0,00 h 0,0 mm 0,0 UV-I 0 W/m 7,1 C 8,3 km/h (2 Bft)
06.11.2018 03:00 8,2 C 96 % 1006,7 hPa 0,0 mm 2,8 km/h (1 Bft) S-SO 0,00 h 0,0 mm 0,0 UV-I 0 W/m 7,6 C 10,2 km/h (2 Bft)
06.11.2018 04:00 8,9 C 95 % 1006,8 hPa 0,0 mm 3,4 km/h (1 Bft) S 0,00 h 0,0 mm 0,0 UV-I 0 W/m 8,2 C 12,0 km/h (2 Bft)
06.11.2018 05:00 9,0 C 95 % 1006,8 hPa 0,0 mm 2,9 km/h (1 Bft) S 0,00 h 0,0 mm 0,0 UV-I 0 W/m 8,2 C 9,8 km/h (2 Bft)
06.11.2018 06:00 9,0 C 94 % 1006,5 hPa 0,0 mm 2,5 km/h (1 Bft) S-SO 0,00 h 0,0 mm 0,0 UV-I 0 W/m 8,1 C 9,6 km/h (2 Bft)
06.11.2018 07:00 9,0 C 93 % 1006,8 hPa 0,0 mm 1,0 km/h (0 Bft) S-SW 0,00 h 0,0 mm 0,0 UV-I 6 W/m 8,0 C 5,2 km/h (1 Bft)
06.11.2018 08:00 8,8 C 94 % 1007,4 hPa 0,0 mm 0,5 km/h (0 Bft) S-SO 0,25 h 0,0 mm 0,0 UV-I 62 W/m 7,9 C 3,5 km/h (1 Bft)
06.11.2018 09:00 10,3 C 92 % 1007,8 hPa 0,0 mm 2,7 km/h (1 Bft) O 0,75 h 0,0 mm 0,0 UV-I 159 W/m 9,0 C 9,4 km/h (2 Bft)
06.11.2018 10:00 11,9 C 85 % 1007,6 hPa 0,0 mm 3,7 km/h (1 Bft) O 0,58 h 0,1 mm 0,0 UV-I 200 W/m 9,4 C 10,9 km/h (2 Bft)
06.11.2018 11:00 14,3 C 76 % 1007,2 hPa 0,0 mm 5,4 km/h (1 Bft) O 1,00 h 0,1 mm 0,1 UV-I 307 W/m 10,2 C 13,9 km/h (3 Bft)
06.11.2018 12:00 16,3 C 68 % 1006,6 hPa 0,0 mm 5,7 km/h (1 Bft) O 1,00 h 0,2 mm 0,1 UV-I 313 W/m 10,3 C 15,4 km/h (3 Bft)
06.11.2018 13:00 17,3 C 64 % 1006,0 hPa 0,0 mm 5,2 km/h (1 Bft) O 1,00 h 0,2 mm 0,0 UV-I 252 W/m 10,5 C 14,2 km/h (3 Bft)
06.11.2018 14:00 17,6 C 63 % 1005,4 hPa 0,0 mm 5,0 km/h (1 Bft) O 0,58 h 0,2 mm 0,0 UV-I 171 W/m 10,5 C 14,1 km/h (3 Bft)
06.11.2018 15:00 16,8 C 66 % 1005,3 hPa 0,0 mm 2,5 km/h (1 Bft) O 0,25 h 0,1 mm 0,0 UV-I 96 W/m 10,5 C 9,6 km/h (2 Bft)
06.11.2018 16:00 15,9 C 69 % 1005,3 hPa 0,0 mm 1,9 km/h (1 Bft) O 0,08 h 0,1 mm 0,0 UV-I 26 W/m 10,3 C 6,9 km/h (2 Bft)
06.11.2018 17:00 14,6 C 74 % 1005,5 hPa 0,0 mm 2,9 km/h (1 Bft) S 0,00 h 0,0 mm 0,0 UV-I 0 W/m 10,1 C 9,4 km/h (2 Bft)
06.11.2018 18:00 13,6 C 78 % 1006,1 hPa 0,0 mm 3,8 km/h (1 Bft) O 0,00 h 0,0 mm 0,0 UV-I 0 W/m 9,8 C 12,8 km/h (3 Bft)
06.11.2018 19:00 13,3 C 79 % 1006,7 hPa 0,0 mm 4,1 km/h (1 Bft) O 0,00 h 0,0 mm 0,0 UV-I 0 W/m 9,7 C 12,9 km/h (3 Bft)
06.11.2018 20:00 12,3 C 82 % 1007,0 hPa 0,0 mm 2,2 km/h (1 Bft) O 0,00 h 0,0 mm 0,0 UV-I 0 W/m 9,3 C 10,0 km/h (2 Bft)
06.11.2018 21:00 11,7 C 85 % 1007,0 hPa 0,0 mm 2,3 km/h (1 Bft) S 0,00 h 0,0 mm 0,0 UV-I 0 W/m 9,3 C 8,7 km/h (2 Bft)
06.11.2018 22:00 11,3 C 87 % 1007,5 hPa 0,0 mm 1,4 km/h (1 Bft) S-SO 0,00 h 0,0 mm 0,0 UV-I 0 W/m 9,2 C 5,4 km/h (1 Bft)
06.11.2018 23:00 10,7 C 89 % 1007,7 hPa 0,0 mm 2,4 km/h (1 Bft) S-SO 0,00 h 0,0 mm 0,0 UV-I 0 W/m 8,9 C 8,7 km/h (2 Bft)
07.11.2018 00:00 10,4 C 89 % 1007,7 hPa 0,0 mm 0,9 km/h (0 Bft) S 0,00 h 0,0 mm 0,0 UV-I 0 W/m 8,6 C 5,0 km/h (1 Bft)
07.11.2018 01:00 10,0 C 90 % 1007,9 hPa 0,0 mm 1,7 km/h (1 Bft) S 0,00 h 0,0 mm 0,0 UV-I 0 W/m 8,5 C 7,4 km/h (2 Bft)
07.11.2018 02:00 10,5 C 89 % 1008,0 hPa 0,0 mm 3,2 km/h (1 Bft) S 0,00 h 0,0 mm 0,0 UV-I 0 W/m 8,8 C 11,5 km/h (2 Bft)
07.11.2018 03:00 10,3 C 88 % 1008,0 hPa 0,0 mm 1,6 km/h (1 Bft) S 0,00 h 0,0 mm 0,0 UV-I 0 W/m 8,4 C 6,8 km/h (2 Bft)
07.11.2018 04:00 9,8 C 88 % 1007,7 hPa 0,0 mm 2,1 km/h (1 Bft) SO 0,00 h 0,0 mm 0,0 UV-I 0 W/m 7,9 C 8,3 km/h (2 Bft)
07.11.2018 05:00 9,7 C 88 % 1007,7 hPa 0,0 mm 3,1 km/h (1 Bft) S-SO 0,00 h 0,0 mm 0,0 UV-I 0 W/m 7,8 C 10,4 km/h (2 Bft)
07.11.2018 06:00 8,9 C 90 % 1007,7 hPa 0,0 mm 2,7 km/h (1 Bft) S-SW 0,00 h 0,0 mm 0,0 UV-I 0 W/m 7,3 C 9,3 km/h (2 Bft)
07.11.2018 07:00 8,4 C 90 % 1007,7 hPa 0,0 mm 2,4 km/h (1 Bft) S 0,00 h 0,0 mm 0,0 UV-I 7 W/m 6,8 C 8,5 km/h (2 Bft)
07.11.2018 08:00 8,5 C 90 % 1008,2 hPa 0,0 mm 3,1 km/h (1 Bft) S-SW 0,17 h 0,0 mm 0,0 UV-I 41 W/m 7,0 C 10,4 km/h (2 Bft)
07.11.2018 09:00 9,9 C 88 % 1008,2 hPa 0,0 mm 3,4 km/h (1 Bft) O-SO 1,00 h 0,0 mm 0,0 UV-I 178 W/m 7,9 C 11,8 km/h (2 Bft)
07.11.2018 10:00 12,1 C 79 % 1008,2 hPa 0,0 mm 5,0 km/h (1 Bft) S-SO 0,75 h 0,1 mm 0,0 UV-I 234 W/m 8,6 C 15,3 km/h (3 Bft)
07.11.2018 11:00 14,5 C 69 % 1008,0 hPa 0,0 mm 5,1 km/h (1 Bft) O 0,83 h 0,1 mm 0,1 UV-I 299 W/m 8,9 C 15,2 km/h (3 Bft)
07.11.2018 12:00 16,5 C 60 % 1007,7 hPa 0,0 mm 7,3 km/h (2 Bft) S-SW 0,83 h 0,2 mm 0,1 UV-I 303 W/m 8,7 C 18,9 km/h (3 Bft)
07.11.2018 13:00 16,3 C 55 % 1007,6 hPa 0,0 mm 10,0 km/h (2 Bft) S-SW 0,00 h 0,2 mm 0,0 UV-I 135 W/m 7,3 C 23,1 km/h (4 Bft)
07.11.2018 14:00 15,9 C 58 % 1008,0 hPa 0,0 mm 6,2 km/h (2 Bft) S-SW 0,00 h 0,1 mm 0,0 UV-I 72 W/m 7,6 C 14,6 km/h (3 Bft)
07.11.2018 15:00 15,6 C 58 % 1008,7 hPa 0,0 mm 7,0 km/h (2 Bft) SW 0,00 h 0,1 mm 0,0 UV-I 25 W/m 7,5 C 17,8 km/h (3 Bft)
07.11.2018 16:00 15,0 C 63 % 1009,0 hPa 0,0 mm 3,0 km/h (1 Bft) S-SW 0,00 h 0,1 mm 0,0 UV-I 5 W/m 8,0 C 9,8 km/h (2 Bft)
07.11.2018 17:00 14,2 C 67 % 1009,5 hPa 0,0 mm 3,1 km/h (1 Bft) S-SW 0,00 h 0,0 mm 0,0 UV-I 0 W/m 8,1 C 9,6 km/h (2 Bft)
07.11.2018 18:00 14,3 C 68 % 1010,4 hPa 0,0 mm 9,4 km/h (2 Bft) S-SW 0,00 h 0,0 mm 0,0 UV-I 0 W/m 8,3 C 22,0 km/h (4 Bft)
07.11.2018 19:00 13,8 C 72 % 1011,0 hPa 0,0 mm 9,1 km/h (2 Bft) SW 0,00 h 0,0 mm 0,0 UV-I 0 W/m 8,8 C 20,7 km/h (4 Bft)
07.11.2018 20:00 13,2 C 77 % 1011,6 hPa 0,0 mm 5,5 km/h (1 Bft) S 0,00 h 0,0 mm 0,0 UV-I 0 W/m 9,2 C 13,5 km/h (3 Bft)
07.11.2018 21:00 13,0 C 78 % 1012,1 hPa 0,0 mm 7,4 km/h (2 Bft) SW 0,00 h 0,0 mm 0,0 UV-I 0 W/m 9,3 C 15,7 km/h (3 Bft)
07.11.2018 22:00 12,9 C 79 % 1012,9 hPa 0,0 mm 7,8 km/h (2 Bft) S 0,00 h 0,0 mm 0,0 UV-I 0 W/m 9,4 C 17,2 km/h (3 Bft)
07.11.2018 23:00 12,7 C 79 % 1013,5 hPa 0,0 mm 4,5 km/h (1 Bft) S-SW 0,00 h 0,0 mm 0,0 UV-I 0 W/m 9,1 C 12,2 km/h (2 Bft)
08.11.2018 00:00 12,2 C 79 % 1014,0 hPa 0,0 mm 2,8 km/h (1 Bft) S-SW 0,00 h 0,0 mm 0,0 UV-I 0 W/m 8,7 C 8,7 km/h (2 Bft)
08.11.2018 01:00 11,9 C 80 % 1014,8 hPa 0,0 mm 2,9 km/h (1 Bft) SW 0,00 h 0,0 mm 0,0 UV-I 0 W/m 8,6 C 8,9 km/h (2 Bft)
08.11.2018 02:00 11,5 C 81 % 1015,4 hPa 0,0 mm 2,5 km/h (1 Bft) S-SW 0,00 h 0,0 mm 0,0 UV-I 0 W/m 8,4 C 10,4 km/h (2 Bft)
08.11.2018 03:00 10,9 C 83 % 1016,0 hPa 0,0 mm 3,4 km/h (1 Bft) S-SW 0,00 h 0,0 mm 0,0 UV-I 0 W/m 8,1 C 10,0 km/h (2 Bft)
08.11.2018 04:00 10,5 C 83 % 1016,7 hPa 0,0 mm 3,0 km/h (1 Bft) SW 0,00 h 0,0 mm 0,0 UV-I 0 W/m 7,8 C 9,4 km/h (2 Bft)
08.11.2018 05:00 10,3 C 85 % 1017,6 hPa 0,0 mm 3,4 km/h (1 Bft) SW 0,00 h 0,0 mm 0,0 UV-I 0 W/m 7,8 C 10,2 km/h (2 Bft)
08.11.2018 06:00 10,4 C 85 % 1018,5 hPa 0,0 mm 2,3 km/h (1 Bft) S-SW 0,00 h 0,0 mm 0,0 UV-I 0 W/m 8,0 C 8,0 km/h (2 Bft)
08.11.2018 07:00 10,4 C 87 % 1019,4 hPa 0,0 mm 1,6 km/h (1 Bft) W 0,00 h 0,0 mm 0,0 UV-I 6 W/m 8,3 C 6,9 km/h (2 Bft)
08.11.2018 08:00 10,4 C 87 % 1020,2 hPa 0,0 mm 1,1 km/h (1 Bft) W 0,25 h 0,0 mm 0,0 UV-I 59 W/m 8,3 C 3,7 km/h (1 Bft)
08.11.2018 09:00 11,4 C 83 % 1020,9 hPa 0,0 mm 7,3 km/h (2 Bft) N-NW 1,00 h 0,0 mm 0,0 UV-I 199 W/m 8,7 C 17,4 km/h (3 Bft)
08.11.2018 10:00 12,6 C 77 % 1021,3 hPa 0,0 mm 6,1 km/h (2 Bft) N 1,00 h 0,1 mm 0,0 UV-I 275 W/m 8,8 C 14,1 km/h (3 Bft)
08.11.2018 11:00 13,4 C 72 % 1021,7 hPa 0,0 mm 2,7 km/h (1 Bft) O 0,67 h 0,2 mm 0,0 UV-I 296 W/m 8,5 C 9,8 km/h (2 Bft)
08.11.2018 12:00 13,0 C 73 % 1021,8 hPa 0,0 mm 0,8 km/h (0 Bft) NW 0,58 h 0,2 mm 0,1 UV-I 261 W/m 8,4 C 4,8 km/h (1 Bft)
08.11.2018 13:00 13,6 C 69 % 1021,5 hPa 0,0 mm 0,1 km/h (0 Bft) N 1,00 h 0,2 mm 0,0 UV-I 313 W/m 8,0 C 1,7 km/h (1 Bft)
08.11.2018 14:00 13,8 C 64 % 1021,0 hPa 0,0 mm 0,1 km/h (0 Bft) N 1,00 h 0,2 mm 0,0 UV-I 253 W/m 7,1 C 0,4 km/h (0 Bft)
08.11.2018 15:00 13,4 C 65 % 1020,6 hPa 0,0 mm 0,1 km/h (0 Bft) N 1,00 h 0,1 mm 0,0 UV-I 154 W/m 7,0 C 0,9 km/h (0 Bft)
08.11.2018 16:00 12,6 C 68 % 1020,2 hPa 0,0 mm 0,0 km/h (0 Bft) N 0,17 h 0,1 mm 0,0 UV-I 25 W/m 6,8 C 0,0 km/h (0 Bft)
08.11.2018 17:00 10,3 C 77 % 1019,8 hPa 0,0 mm 0,0 km/h (0 Bft) N 0,00 h 0,0 mm 0,0 UV-I 0 W/m 6,4 C 0,0 km/h (0 Bft)
08.11.2018 18:00 8,4 C 83 % 1019,6 hPa 0,0 mm 0,0 km/h (0 Bft) N 0,00 h 0,0 mm 0,0 UV-I 0 W/m 5,7 C 0,0 km/h (0 Bft)
08.11.2018 19:00 7,4 C 86 % 1019,3 hPa 0,0 mm 0,0 km/h (0 Bft) N 0,00 h 0,0 mm 0,0 UV-I 0 W/m 5,2 C 0,0 km/h (0 Bft)
08.11.2018 20:00 6,6 C 89 % 1019,1 hPa 0,0 mm 0,0 km/h (0 Bft) N 0,00 h 0,0 mm 0,0 UV-I 0 W/m 4,9 C 0,0 km/h (0 Bft)
08.11.2018 21:00 6,2 C 90 % 1018,6 hPa 0,0 mm 0,0 km/h (0 Bft) N 0,00 h 0,0 mm 0,0 UV-I 0 W/m 4,7 C 0,2 km/h (0 Bft)
08.11.2018 22:00 6,0 C 91 % 1018,2 hPa 0,0 mm 0,0 km/h (0 Bft) N 0,00 h 0,0 mm 0,0 UV-I 0 W/m 4,7 C 0,0 km/h (0 Bft)
08.11.2018 23:00 6,0 C 93 % 1017,5 hPa 0,0 mm 0,0 km/h (0 Bft) N 0,00 h 0,0 mm 0,0 UV-I 0 W/m 4,9 C 0,0 km/h (0 Bft)
09.11.2018 00:00 6,1 C 93 % 1017,0 hPa 0,0 mm 0,0 km/h (0 Bft) N 0,00 h 0,0 mm 0,0 UV-I 0 W/m 5,1 C 0,0 km/h (0 Bft)
09.11.2018 01:00 7,0 C 94 % 1016,2 hPa 0,0 mm 0,0 km/h (0 Bft) N 0,00 h 0,0 mm 0,0 UV-I 0 W/m 6,1 C 0,2 km/h (0 Bft)
09.11.2018 02:00 7,7 C 91 % 1015,6 hPa 0,0 mm 0,0 km/h (0 Bft) N 0,00 h 0,0 mm 0,0 UV-I 0 W/m 6,4 C 0,9 km/h (0 Bft)
09.11.2018 03:00 7,9 C 91 % 1015,1 hPa 0,0 mm 2,4 km/h (1 Bft) S-SW 0,00 h 0,0 mm 0,0 UV-I 0 W/m 6,5 C 7,8 km/h (2 Bft)
09.11.2018 04:00 8,1 C 91 % 1014,5 hPa 0,0 mm 2,5 km/h (1 Bft) S-SO 0,00 h 0,0 mm 0,0 UV-I 0 W/m 6,7 C 9,6 km/h (2 Bft)
09.11.2018 05:00 7,9 C 91 % 1014,5 hPa 0,0 mm 2,3 km/h (1 Bft) S 0,00 h 0,0 mm 0,0 UV-I 0 W/m 6,6 C 7,2 km/h (2 Bft)
09.11.2018 06:00 8,0 C 93 % 1014,5 hPa 0,0 mm 3,9 km/h (1 Bft) S-SW 0,00 h 0,0 mm 0,0 UV-I 0 W/m 6,9 C 11,6 km/h (2 Bft)
09.11.2018 07:00 7,9 C 94 % 1014,6 hPa 0,0 mm 1,9 km/h (1 Bft) S-SW 0,00 h 0,0 mm 0,0 UV-I 6 W/m 6,9 C 8,1 km/h (2 Bft)
09.11.2018 08:00 7,6 C 94 % 1014,6 hPa 0,0 mm 1,5 km/h (1 Bft) S 0,00 h 0,0 mm 0,0 UV-I 21 W/m 6,8 C 6,1 km/h (2 Bft)
09.11.2018 09:00 8,1 C 95 % 1014,3 hPa 0,0 mm 1,9 km/h (1 Bft) S-SO 0,00 h 0,0 mm 0,0 UV-I 80 W/m 7,3 C 7,9 km/h (2 Bft)
09.11.2018 10:00 9,8 C 93 % 1014,1 hPa 0,0 mm 3,5 km/h (1 Bft) S-SO 0,25 h 0,0 mm 0,0 UV-I 160 W/m 8,7 C 12,6 km/h (3 Bft)
09.11.2018 11:00 11,9 C 85 % 1013,9 hPa 0,0 mm 5,9 km/h (2 Bft) S-SO 0,75 h 0,1 mm 0,0 UV-I 249 W/m 9,4 C 16,7 km/h (3 Bft)
09.11.2018 12:00 13,7 C 76 % 1013,2 hPa 0,0 mm 5,2 km/h (1 Bft) S-SO 0,67 h 0,1 mm 0,0 UV-I 265 W/m 9,6 C 15,9 km/h (3 Bft)
09.11.2018 13:00 14,5 C 73 % 1012,4 hPa 0,0 mm 3,5 km/h (1 Bft) S-SO 0,08 h 0,1 mm 0,0 UV-I 155 W/m 9,8 C 13,0 km/h (3 Bft)
09.11.2018 14:00 15,1 C 71 % 1011,7 hPa 0,0 mm 4,7 km/h (1 Bft) S-SO 0,50 h 0,1 mm 0,0 UV-I 159 W/m 9,9 C 13,3 km/h (3 Bft)
09.11.2018 15:00 14,6 C 72 % 1011,4 hPa 0,0 mm 4,5 km/h (1 Bft) S 0,00 h 0,1 mm 0,0 UV-I 68 W/m 9,6 C 14,2 km/h (3 Bft)
09.11.2018 16:00 13,8 C 75 % 1010,9 hPa 0,0 mm 4,5 km/h (1 Bft) S-SO 0,17 h 0,1 mm 0,0 UV-I 22 W/m 9,4 C 12,8 km/h (3 Bft)
09.11.2018 17:00 12,9 C 79 % 1011,1 hPa 0,0 mm 2,9 km/h (1 Bft) S-SW 0,00 h 0,0 mm 0,0 UV-I 0 W/m 9,3 C 9,3 km/h (2 Bft)
09.11.2018 18:00 12,6 C 81 % 1011,1 hPa 0,0 mm 2,2 km/h (1 Bft) S-SO 0,00 h 0,0 mm 0,0 UV-I 0 W/m 9,3 C 7,8 km/h (2 Bft)
09.11.2018 19:00 12,2 C 83 % 1010,4 hPa 0,0 mm 2,8 km/h (1 Bft) S-SO 0,00 h 0,0 mm 0,0 UV-I 0 W/m 9,4 C 9,8 km/h (2 Bft)
09.11.2018 20:00 12,1 C 82 % 1009,8 hPa 0,0 mm 4,6 km/h (1 Bft) W-SW 0,00 h 0,0 mm 0,0 UV-I 0 W/m 9,1 C 13,3 km/h (3 Bft)
09.11.2018 21:00 11,7 C 84 % 1009,4 hPa 0,0 mm 5,2 km/h (1 Bft) S 0,00 h 0,0 mm 0,0 UV-I 0 W/m 9,1 C 14,6 km/h (3 Bft)
09.11.2018 22:00 11,6 C 85 % 1008,8 hPa 0,0 mm 4,3 km/h (1 Bft) S-SW 0,00 h 0,0 mm 0,0 UV-I 0 W/m 9,1 C 13,0 km/h (3 Bft)
09.11.2018 23:00 11,2 C 86 % 1007,9 hPa 0,0 mm 4,8 km/h (1 Bft) S 0,00 h 0,0 mm 0,0 UV-I 0 W/m 8,9 C 14,4 km/h (3 Bft)
10.11.2018 00:00 10,9 C 85 % 1007,3 hPa 0,0 mm 4,3 km/h (1 Bft) S 0,00 h 0,0 mm 0,0 UV-I 0 W/m 8,5 C 13,3 km/h (3 Bft)
10.11.2018 01:00 11,1 C 84 % 1006,6 hPa 0,0 mm 4,7 km/h (1 Bft) S-SO 0,00 h 0,0 mm 0,0 UV-I 0 W/m 8,5 C 14,4 km/h (3 Bft)
10.11.2018 02:00 11,2 C 84 % 1005,8 hPa 0,0 mm 3,6 km/h (1 Bft) S-SO 0,00 h 0,0 mm 0,0 UV-I 0 W/m 8,6 C 12,0 km/h (2 Bft)
10.11.2018 03:00 11,4 C 82 % 1004,8 hPa 0,0 mm 7,0 km/h (2 Bft) S 0,00 h 0,0 mm 0,0 UV-I 0 W/m 8,5 C 18,9 km/h (3 Bft)
10.11.2018 04:00 12,6 C 78 % 1004,5 hPa 0,0 mm 7,4 km/h (2 Bft) S-SW 0,00 h 0,0 mm 0,0 UV-I 0 W/m 8,8 C 19,1 km/h (3 Bft)
10.11.2018 05:00 13,1 C 74 % 1003,7 hPa 0,0 mm 8,1 km/h (2 Bft) S 0,00 h 0,0 mm 0,0 UV-I 0 W/m 8,6 C 20,7 km/h (4 Bft)
10.11.2018 06:00 13,0 C 76 % 1003,6 hPa 0,2 mm 8,5 km/h (2 Bft) S 0,00 h 0,0 mm 0,0 UV-I 0 W/m 8,7 C 21,6 km/h (4 Bft)
10.11.2018 07:00 11,7 C 86 % 1003,6 hPa 0,6 mm 5,8 km/h (2 Bft) S 0,00 h 0,0 mm 0,0 UV-I 0 W/m 9,5 C 18,7 km/h (3 Bft)
10.11.2018 08:00 11,0 C 91 % 1003,9 hPa 0,4 mm 5,0 km/h (1 Bft) S-SO 0,00 h 0,0 mm 0,0 UV-I 11 W/m 9,7 C 13,9 km/h (3 Bft)
10.11.2018 09:00 11,5 C 92 % 1004,1 hPa 0,0 mm 5,8 km/h (1 Bft) SW 0,00 h 0,0 mm 0,0 UV-I 29 W/m 10,2 C 15,2 km/h (3 Bft)
10.11.2018 10:00 13,1 C 84 % 1004,3 hPa 0,0 mm 8,2 km/h (2 Bft) SW 0,00 h 0,0 mm 0,0 UV-I 30 W/m 10,5 C 21,1 km/h (4 Bft)
10.11.2018 11:00 13,1 C 86 % 1004,2 hPa 0,4 mm 6,7 km/h (2 Bft) S 0,00 h 0,0 mm 0,0 UV-I 42 W/m 10,8 C 16,8 km/h (3 Bft)
10.11.2018 12:00 12,7 C 91 % 1004,0 hPa 0,8 mm 3,8 km/h (1 Bft) S-SO 0,00 h 0,0 mm 0,0 UV-I 34 W/m 11,4 C 11,3 km/h (2 Bft)
10.11.2018 13:00 12,5 C 94 % 1003,4 hPa 0,8 mm 2,7 km/h (1 Bft) S-SO 0,00 h 0,0 mm 0,0 UV-I 40 W/m 11,6 C 9,8 km/h (2 Bft)
10.11.2018 14:00 12,5 C 95 % 1002,9 hPa 0,4 mm 3,2 km/h (1 Bft) S-SO 0,00 h 0,0 mm 0,0 UV-I 45 W/m 11,8 C 10,4 km/h (2 Bft)
10.11.2018 15:00 12,8 C 94 % 1002,5 hPa 0,0 mm 5,4 km/h (1 Bft) S-SW 0,00 h 0,0 mm 0,0 UV-I 18 W/m 11,8 C 15,5 km/h (3 Bft)
10.11.2018 16:00 13,8 C 86 % 1002,7 hPa 0,0 mm 8,9 km/h (2 Bft) S-SW 0,17 h 0,0 mm 0,0 UV-I 16 W/m 11,4 C 20,9 km/h (4 Bft)
10.11.2018 17:00 14,1 C 83 % 1002,9 hPa 0,0 mm 10,4 km/h (2 Bft) SW 0,00 h 0,0 mm 0,0 UV-I 0 W/m 11,3 C 23,7 km/h (4 Bft)
10.11.2018 18:00 14,1 C 83 % 1003,1 hPa 0,0 mm 10,3 km/h (2 Bft) S-SW 0,00 h 0,0 mm 0,0 UV-I 0 W/m 11,1 C 26,1 km/h (4 Bft)
10.11.2018 19:00 14,2 C 82 % 1003,1 hPa 0,2 mm 9,7 km/h (2 Bft) S-SW 0,00 h 0,0 mm 0,0 UV-I 0 W/m 11,1 C 22,0 km/h (4 Bft)
10.11.2018 20:00 13,1 C 90 % 1003,4 hPa 0,8 mm 5,2 km/h (1 Bft) S-SW 0,00 h 0,0 mm 0,0 UV-I 0 W/m 11,5 C 15,0 km/h (3 Bft)
10.11.2018 21:00 12,5 C 94 % 1003,8 hPa 0,6 mm 3,8 km/h (1 Bft) S-SW 0,00 h 0,0 mm 0,0 UV-I 0 W/m 11,6 C 11,8 km/h (2 Bft)
10.11.2018 22:00 12,3 C 95 % 1004,1 hPa 0,0 mm 2,8 km/h (1 Bft) S-SO 0,00 h 0,0 mm 0,0 UV-I 0 W/m 11,5 C 10,4 km/h (2 Bft)
10.11.2018 23:00 11,9 C 95 % 1004,3 hPa 0,0 mm 2,3 km/h (1 Bft) S 0,00 h 0,0 mm 0,0 UV-I 0 W/m 11,1 C 10,2 km/h (2 Bft)
11.11.2018 00:00 11,4 C 95 % 1004,4 hPa 0,2 mm 2,0 km/h (1 Bft) S-SO 0,00 h 0,0 mm 0,0 UV-I 0 W/m 10,5 C 8,0 km/h (2 Bft)
11.11.2018 01:00 11,4 C 93 % 1004,4 hPa 0,0 mm 4,8 km/h (1 Bft) S 0,00 h 0,0 mm 0,0 UV-I 0 W/m 10,3 C 13,9 km/h (3 Bft)
11.11.2018 02:00 11,4 C 90 % 1004,5 hPa 0,0 mm 6,5 km/h (2 Bft) S-SW 0,00 h 0,0 mm 0,0 UV-I 0 W/m 9,9 C 18,0 km/h (3 Bft)
11.11.2018 03:00 11,4 C 88 % 1004,6 hPa 0,0 mm 6,9 km/h (2 Bft) S 0,00 h 0,0 mm 0,0 UV-I 0 W/m 9,6 C 18,3 km/h (3 Bft)
11.11.2018 04:00 11,6 C 87 % 1004,4 hPa 0,0 mm 6,4 km/h (2 Bft) S 0,00 h 0,0 mm 0,0 UV-I 0 W/m 9,5 C 19,1 km/h (3 Bft)
11.11.2018 05:00 11,6 C 85 % 1004,6 hPa 0,0 mm 5,6 km/h (1 Bft) S-SO 0,00 h 0,0 mm 0,0 UV-I 0 W/m 9,1 C 16,6 km/h (3 Bft)
11.11.2018 06:00 11,4 C 85 % 1004,7 hPa 0,0 mm 6,0 km/h (2 Bft) S-SW 0,00 h 0,0 mm 0,0 UV-I 0 W/m 9,0 C 17,9 km/h (3 Bft)
11.11.2018 07:00 11,4 C 85 % 1004,9 hPa 0,0 mm 5,5 km/h (1 Bft) S-SW 0,00 h 0,0 mm 0,0 UV-I 0 W/m 9,0 C 14,4 km/h (3 Bft)
11.11.2018 08:00 12,0 C 81 % 1005,8 hPa 0,0 mm 8,4 km/h (2 Bft) W-SW 0,00 h 0,0 mm 0,0 UV-I 14 W/m 8,9 C 20,9 km/h (4 Bft)
11.11.2018 09:00 12,6 C 80 % 1006,2 hPa 0,0 mm 9,9 km/h (2 Bft) S-SW 0,42 h 0,0 mm 0,1 UV-I 138 W/m 9,2 C 23,5 km/h (4 Bft)
11.11.2018 10:00 13,7 C 74 % 1006,7 hPa 0,0 mm 9,3 km/h (2 Bft) S 0,50 h 0,1 mm 0,1 UV-I 169 W/m 9,1 C 21,7 km/h (4 Bft)
11.11.2018 11:00 14,3 C 70 % 1007,0 hPa 0,0 mm 11,8 km/h (2 Bft) SW 0,25 h 0,1 mm 0,1 UV-I 208 W/m 9,0 C 27,8 km/h (4 Bft)
11.11.2018 12:00 14,5 C 71 % 1007,5 hPa 0,0 mm 9,8 km/h (2 Bft) SW 0,00 h 0,1 mm 0,1 UV-I 124 W/m 9,3 C 22,8 km/h (4 Bft)
11.11.2018 13:00 14,6 C 70 % 1007,7 hPa 0,0 mm 8,8 km/h (2 Bft) SW 0,00 h 0,1 mm 0,1 UV-I 39 W/m 9,1 C 21,1 km/h (4 Bft)
11.11.2018 14:00 14,2 C 74 % 1008,1 hPa 0,6 mm 8,6 km/h (2 Bft) SW 0,00 h 0,1 mm 0,0 UV-I 22 W/m 9,6 C 20,7 km/h (4 Bft)
11.11.2018 15:00 12,7 C 85 % 1008,3 hPa 0,6 mm 4,6 km/h (1 Bft) SW 0,00 h 0,0 mm 0,0 UV-I 20 W/m 10,3 C 12,4 km/h (3 Bft)
11.11.2018 16:00 12,4 C 88 % 1008,4 hPa 0,0 mm 7,5 km/h (2 Bft) S-SW 0,00 h 0,0 mm 0,0 UV-I 10 W/m 10,5 C 17,8 km/h (3 Bft)
11.11.2018 17:00 12,7 C 85 % 1008,7 hPa 0,0 mm 8,6 km/h (2 Bft) S-SW 0,00 h 0,0 mm 0,0 UV-I 0 W/m 10,3 C 20,6 km/h (4 Bft)
11.11.2018 18:00 12,9 C 83 % 1008,9 hPa 0,0 mm 6,8 km/h (2 Bft) S-SW 0,00 h 0,0 mm 0,0 UV-I 0 W/m 10,0 C 16,1 km/h (3 Bft)
11.11.2018 19:00 12,8 C 80 % 1009,3 hPa 0,2 mm 4,9 km/h (1 Bft) S-SW 0,00 h 0,0 mm 0,0 UV-I 0 W/m 9,5 C 12,4 km/h (3 Bft)
11.11.2018 20:00 12,1 C 84 % 1010,4 hPa 0,2 mm 3,2 km/h (1 Bft) SW 0,00 h 0,0 mm 0,0 UV-I 0 W/m 9,4 C 10,2 km/h (2 Bft)
11.11.2018 21:00 11,3 C 88 % 1011,1 hPa 0,2 mm 2,0 km/h (1 Bft) S-SW 0,00 h 0,0 mm 0,0 UV-I 0 W/m 9,4 C 7,8 km/h (2 Bft)
11.11.2018 22:00 11,0 C 91 % 1011,7 hPa 0,2 mm 2,2 km/h (1 Bft) S 0,00 h 0,0 mm 0,0 UV-I 0 W/m 9,6 C 7,4 km/h (2 Bft)
11.11.2018 23:00 10,7 C 93 % 1012,5 hPa 0,0 mm 1,2 km/h (1 Bft) S 0,00 h 0,0 mm 0,0 UV-I 0 W/m 9,6 C 5,6 km/h (1 Bft)
Min-Datum _ 08.11.18 07.11.18 10.11.18 - 05.11.18 - - - - - 08.11.18 05.11.18
_ Min-Zeit 23:05 12:50 15:20 - 00:00 - - - - - 21:00 00:00
Minimum _ 5,9 C 54 % 1002,3 hPa - 0,0 km/h (0 Bft) - - - - - 4,5 C 0,0 km/h (0 Bft)
Max-Datum _ 06.11.18 05.11.18 08.11.18 10.11.18 11.11.18 - 05.11.18 06.11.18 11.11.18 08.11.18 10.11.18 11.11.18
_ Max-Zeit 14:10 03:50 12:15 12:05 11:40 - 12:05 12:05 11:30 11:25 15:05 11:45
Maximum _ 17,7 C 97 % 1021,9 hPa 0,8 mm 15,4 km/h
SW (3 Bft)
- 0,08 h 0,2 mm 0,2 UV-I 450 W/m 12,1 C 46,6 km/h
S-SW (6 Bft)
Durchschnitt _ 11,5 C 84 % 1009,6 hPa #7,4 mm 4,0 km/h (1 Bft) S #21:20 h #5,080 mm 0,1 UV-I 116 W/m 8,7 C 11,5 km/h (2 Bft)



© 1998 - 2018 www.pulheimwetter.de